Flight Track Log - Related Links

Times and Time Zones

All times are in EST time to prevent confusion due to time zone crossing. See the LJY630 flight status page for this flight to view local times or setup timezone preferences in your user account.

Time Position Orientation Groundspeed Altitude Reporting Facility
EST Latitude Longitude Course Direction KTS MPH feet Rate Location/Type
Tue 08:37:54 AM 40.2350 -79.4331 171° South 223 257 3,900  Level Cleveland Center
Tue 08:38:00 AM 40.2308 -79.4322 171° South 206 237 4,300 4,200 Climbing Cleveland Center
Tue 08:38:24 AM 40.2169 -79.4100 129° Southeast 233 268 6,000 2,824 Climbing Cleveland Center
Tue 08:39:25 AM 40.2269 -79.3164 82° East 272 313 8,300 2,976 Climbing Cleveland Center
Tue 08:40:27 AM 40.2497 -79.1986 76° East 293 337 12,100 3,073 Climbing Cleveland Center
Tue 08:41:28 AM 40.2733 -79.0703 76° East 358 412 14,600 2,459 Climbing Cleveland Center
Tue 08:42:29 AM 40.2997 -78.9267 76° East 403 464 17,100 2,341 Climbing Cleveland Center
Tue 08:43:31 AM 40.3175 -78.7717 81° East 431 496 19,400 1,902 Climbing Cleveland Center
Tue 08:44:32 AM 40.3164 -78.6117 90° East 441 507 21,000 780 Climbing Cleveland Center
Tue 08:45:34 AM 40.3156 -78.4408 90° East 469 540 21,000  Level Cleveland Center
Tue 08:46:35 AM 40.3150 -78.2364 90° East 473 544 21,000  Level Cleveland Center
Tue 08:47:36 AM 40.3147 -78.0656 90° East 473 544 21,000  Level Cleveland Center
Tue 08:48:38 AM 40.3125 -77.8953 91° East 473 544 21,000  Level Cleveland Center
Tue 08:49:39 AM 40.2972 -77.7278 97° East 467 537 21,000  Level Cleveland Center
Tue 08:50:41 AM 40.2789 -77.5558 98° East 462 532 21,000  Level Cleveland Center
Tue 08:51:42 AM 40.2619 -77.3883 97° East 463 533 21,000  Level Cleveland Center
Tue 08:52:44 AM 40.2453 -77.2222 97° East 461 531 21,000  Level Cleveland Center
Tue 08:53:45 AM 40.2269 -77.0561 98° East 461 531 21,000 -634 Level Cleveland Center
Tue 08:54:47 AM 40.2097 -76.8892 98° East 463 533 19,700 -1,537 Descending Cleveland Center
Tue 08:55:46 AM 40.1892 -76.7108 99° East 464 534 17,900 -1,795 Descending New York Center
Tue 08:56:44 AM 40.1719 -76.5517 98° East 447 514 16,200 -1,714 Descending New York Center
Tue 08:57:45 AM 40.1539 -76.4064 99° East 424 488 14,500 -1,623 Descending New York Center
Tue 08:58:46 AM 40.1414 -76.2750 97° East 402 463 12,900 -1,550 Descending New York Center
Tue 08:59:45 AM 40.1250 -76.1350 99° East 372 428 11,400 -1,350 Descending New York Center
Tue 09:00:46 AM 40.1069 -76.0225 102° East 331 381 10,200 -1,328 Descending New York Center
Tue 09:01:47 AM 40.0519 -75.9478 134° Southeast 275 316 8,700 -1,475 Descending New York Center
Tue 09:02:44 AM 39.9939 -75.8947 145° Southeast 280 322 7,300 -1,350 Descending New York Center
Tue 09:03:47 AM 39.9194 -75.8350 148° Southeast 285 328 6,000 -1,180 Descending New York Center
Tue 09:04:46 AM 39.8628 -75.7931 150° Southeast 273 314 4,900 -1,271 Descending New York Center
Tue 09:05:45 AM 39.7964 -75.7369 147° Southeast 262 302 3,500 -1,109 Descending New York Center
Tue 09:06:45 AM 39.7439 -75.6928 147° Southeast 256 295 2,700 -787 Descending New York Center
Tue 09:07:47 AM 39.6803 -75.6667 162° South 231 266 1,900 -793 Descending New York Center
Tue 09:08:46 AM 39.6350 -75.6581 172° South 199 229 1,100 -559 Descending New York Center
Tue 09:09:45 AM 39.6389 -75.6125 84° East 123 142 800 -300 Descending New York Center
Tue 09:10:46 AM 39.6503 -75.5892 58° Northeast 79 91 500 -295 Descending New York Center
Tue 09:14:00 AM 39.6667 -75.6000 163° South  Level FlightAware Approximate
Tue 09:21:00 AM 39.6787 -75.6066 163° South  Level Estimated
Tue 09:22:00 AM 39.6787 -75.6066 163° South  Level Estimated
Tue 09:23:00 AM 39.6787 -75.6066 163° South  Level Estimated
Tue 09:24:00 AM 39.6787 -75.6066 163° South  Level Estimated

Login

Don't have an account? Register now (free) for customized features, flight alerts, and more!